sensor_id;sensor_type;location;lat;lon;timestamp;temperature;humidity
678;DHT22;321;48.814;9.132;2023-06-14T00:00:13;16.00;97.90
678;DHT22;321;48.814;9.132;2023-06-14T00:07:37;16.10;74.30
678;DHT22;321;48.814;9.132;2023-06-14T00:10:04;16.00;80.30
678;DHT22;321;48.814;9.132;2023-06-14T00:49:00;15.60;86.80
678;DHT22;321;48.814;9.132;2023-06-14T01:08:50;15.20;85.60
678;DHT22;321;48.814;9.132;2023-06-14T01:11:23;15.20;87.80
678;DHT22;321;48.814;9.132;2023-06-14T01:13:53;14.80;99.90
678;DHT22;321;48.814;9.132;2023-06-14T01:21:21;15.10;84.10
678;DHT22;321;48.814;9.132;2023-06-14T01:31:18;14.90;92.30
678;DHT22;321;48.814;9.132;2023-06-14T01:33:45;14.80;92.20
678;DHT22;321;48.814;9.132;2023-06-14T01:36:11;14.80;91.90
678;DHT22;321;48.814;9.132;2023-06-14T01:38:37;14.80;85.20
678;DHT22;321;48.814;9.132;2023-06-14T01:43:30;14.70;99.90
678;DHT22;321;48.814;9.132;2023-06-14T01:45:57;14.80;94.90
678;DHT22;321;48.814;9.132;2023-06-14T01:48:23;14.70;93.20
678;DHT22;321;48.814;9.132;2023-06-14T01:50:49;14.80;87.10
678;DHT22;321;48.814;9.132;2023-06-14T01:53:15;14.80;87.60
678;DHT22;321;48.814;9.132;2023-06-14T01:58:10;14.80;87.30
678;DHT22;321;48.814;9.132;2023-06-14T02:00:36;14.80;88.70
678;DHT22;321;48.814;9.132;2023-06-14T02:03:02;14.80;88.80
678;DHT22;321;48.814;9.132;2023-06-14T02:05:29;14.80;88.40
678;DHT22;321;48.814;9.132;2023-06-14T02:07:55;14.90;88.00
678;DHT22;321;48.814;9.132;2023-06-14T02:10:21;14.90;87.90
678;DHT22;321;48.814;9.132;2023-06-14T02:15:12;14.90;92.90
678;DHT22;321;48.814;9.132;2023-06-14T02:17:42;14.90;88.40
678;DHT22;321;48.814;9.132;2023-06-14T02:20:08;14.70;89.10
678;DHT22;321;48.814;9.132;2023-06-14T02:22:35;14.60;89.60
678;DHT22;321;48.814;9.132;2023-06-14T02:25:00;14.60;90.30
678;DHT22;321;48.814;9.132;2023-06-14T02:27:26;14.70;90.40
678;DHT22;321;48.814;9.132;2023-06-14T02:29:51;14.60;90.30
678;DHT22;321;48.814;9.132;2023-06-14T02:32:17;14.70;90.00
678;DHT22;321;48.814;9.132;2023-06-14T02:34:42;14.80;89.90
678;DHT22;321;48.814;9.132;2023-06-14T02:37:08;14.70;89.70
678;DHT22;321;48.814;9.132;2023-06-14T02:39:34;14.70;90.00
678;DHT22;321;48.814;9.132;2023-06-14T02:44:27;14.60;99.90
678;DHT22;321;48.814;9.132;2023-06-14T02:46:56;14.50;94.40
678;DHT22;321;48.814;9.132;2023-06-14T02:56:40;14.40;93.30
678;DHT22;321;48.814;9.132;2023-06-14T02:59:06;14.40;91.60
678;DHT22;321;48.814;9.132;2023-06-14T03:01:32;14.30;92.10
678;DHT22;321;48.814;9.132;2023-06-14T03:04:01;14.20;93.00
678;DHT22;321;48.814;9.132;2023-06-14T03:06:31;14.10;93.10
678;DHT22;321;48.814;9.132;2023-06-14T03:08:58;14.30;93.00
678;DHT22;321;48.814;9.132;2023-06-14T03:11:30;14.30;92.90
678;DHT22;321;48.814;9.132;2023-06-14T03:13:55;14.30;92.70
678;DHT22;321;48.814;9.132;2023-06-14T03:16:21;14.30;92.80
678;DHT22;321;48.814;9.132;2023-06-14T03:18:52;14.40;92.60
678;DHT22;321;48.814;9.132;2023-06-14T03:21:18;14.30;92.30
678;DHT22;321;48.814;9.132;2023-06-14T03:23:45;14.30;92.20
678;DHT22;321;48.814;9.132;2023-06-14T03:26:11;14.20;92.40
678;DHT22;321;48.814;9.132;2023-06-14T03:28:46;14.20;92.60
678;DHT22;321;48.814;9.132;2023-06-14T03:31:13;14.30;92.60
678;DHT22;321;48.814;9.132;2023-06-14T03:33:39;14.20;92.90
678;DHT22;321;48.814;9.132;2023-06-14T03:36:05;14.30;92.60
678;DHT22;321;48.814;9.132;2023-06-14T03:38:32;14.40;92.60
678;DHT22;321;48.814;9.132;2023-06-14T03:40:57;14.40;92.80
678;DHT22;321;48.814;9.132;2023-06-14T03:43:23;14.40;92.80
678;DHT22;321;48.814;9.132;2023-06-14T03:45:48;14.30;93.20
678;DHT22;321;48.814;9.132;2023-06-14T03:48:14;14.20;93.40
678;DHT22;321;48.814;9.132;2023-06-14T03:50:40;14.30;93.30
678;DHT22;321;48.814;9.132;2023-06-14T03:53:06;14.40;93.20
678;DHT22;321;48.814;9.132;2023-06-14T03:55:32;14.50;93.30
678;DHT22;321;48.814;9.132;2023-06-14T03:57:59;14.50;93.30
678;DHT22;321;48.814;9.132;2023-06-14T04:00:25;14.40;93.60
678;DHT22;321;48.814;9.132;2023-06-14T04:02:50;14.30;94.20
678;DHT22;321;48.814;9.132;2023-06-14T04:05:17;14.40;94.60
678;DHT22;321;48.814;9.132;2023-06-14T04:07:44;14.40;94.40
678;DHT22;321;48.814;9.132;2023-06-14T04:10:12;14.40;94.40
678;DHT22;321;48.814;9.132;2023-06-14T04:12:38;14.30;94.60
678;DHT22;321;48.814;9.132;2023-06-14T04:15:04;14.40;94.70
678;DHT22;321;48.814;9.132;2023-06-14T04:17:31;14.60;94.30
678;DHT22;321;48.814;9.132;2023-06-14T04:19:58;14.70;93.70
678;DHT22;321;48.814;9.132;2023-06-14T04:22:25;14.70;93.30
678;DHT22;321;48.814;9.132;2023-06-14T04:24:54;14.80;94.40
678;DHT22;321;48.814;9.132;2023-06-14T04:27:23;14.80;95.00
678;DHT22;321;48.814;9.132;2023-06-14T04:29:52;14.90;95.00
678;DHT22;321;48.814;9.132;2023-06-14T04:32:26;15.00;95.20
678;DHT22;321;48.814;9.132;2023-06-14T04:34:55;15.10;95.70
678;DHT22;321;48.814;9.132;2023-06-14T04:37:21;15.20;95.30
678;DHT22;321;48.814;9.132;2023-06-14T04:39:48;15.30;95.50
678;DHT22;321;48.814;9.132;2023-06-14T04:42:14;15.50;95.30
678;DHT22;321;48.814;9.132;2023-06-14T04:44:41;15.60;95.10
678;DHT22;321;48.814;9.132;2023-06-14T04:47:07;15.80;94.70
678;DHT22;321;48.814;9.132;2023-06-14T04:49:33;15.90;95.20
678;DHT22;321;48.814;9.132;2023-06-14T04:52:00;16.10;94.70
678;DHT22;321;48.814;9.132;2023-06-14T04:54:27;16.40;92.30
678;DHT22;321;48.814;9.132;2023-06-14T04:56:53;16.80;91.60
678;DHT22;321;48.814;9.132;2023-06-14T04:59:21;17.10;92.70
678;DHT22;321;48.814;9.132;2023-06-14T05:01:49;17.30;92.90
678;DHT22;321;48.814;9.132;2023-06-14T05:04:18;17.60;91.40
678;DHT22;321;48.814;9.132;2023-06-14T05:06:44;18.00;91.50
678;DHT22;321;48.814;9.132;2023-06-14T05:09:11;18.40;90.20
678;DHT22;321;48.814;9.132;2023-06-14T05:11:37;19.10;87.30
678;DHT22;321;48.814;9.132;2023-06-14T05:14:02;20.30;88.20
678;DHT22;321;48.814;9.132;2023-06-14T05:16:28;21.40;83.80
678;DHT22;321;48.814;9.132;2023-06-14T05:18:54;22.10;79.60
678;DHT22;321;48.814;9.132;2023-06-14T05:21:20;22.90;75.70
678;DHT22;321;48.814;9.132;2023-06-14T05:23:46;24.10;71.60
678;DHT22;321;48.814;9.132;2023-06-14T05:26:11;25.20;66.80
678;DHT22;321;48.814;9.132;2023-06-14T05:28:37;26.00;65.40
678;DHT22;321;48.814;9.132;2023-06-14T05:31:02;26.70;59.90
678;DHT22;321;48.814;9.132;2023-06-14T05:33:28;27.20;56.70
678;DHT22;321;48.814;9.132;2023-06-14T05:35:54;27.60;54.90
678;DHT22;321;48.814;9.132;2023-06-14T05:38:20;27.80;53.30
678;DHT22;321;48.814;9.132;2023-06-14T05:40:46;28.10;52.20
678;DHT22;321;48.814;9.132;2023-06-14T05:43:11;28.40;51.50
678;DHT22;321;48.814;9.132;2023-06-14T05:45:37;28.60;52.40
678;DHT22;321;48.814;9.132;2023-06-14T05:48:02;29.00;51.20
678;DHT22;321;48.814;9.132;2023-06-14T05:50:28;29.40;48.90
678;DHT22;321;48.814;9.132;2023-06-14T05:52:54;29.70;50.00
678;DHT22;321;48.814;9.132;2023-06-14T05:55:20;30.20;47.20
678;DHT22;321;48.814;9.132;2023-06-14T05:57:45;30.80;45.10
678;DHT22;321;48.814;9.132;2023-06-14T06:00:11;31.30;44.60
678;DHT22;321;48.814;9.132;2023-06-14T06:02:40;31.90;44.30
678;DHT22;321;48.814;9.132;2023-06-14T06:05:08;31.90;45.30
678;DHT22;321;48.814;9.132;2023-06-14T06:07:34;31.40;45.10
678;DHT22;321;48.814;9.132;2023-06-14T06:09:59;31.40;43.70
678;DHT22;321;48.814;9.132;2023-06-14T06:12:25;30.70;45.10
678;DHT22;321;48.814;9.132;2023-06-14T06:14:50;30.10;45.30
678;DHT22;321;48.814;9.132;2023-06-14T06:17:16;29.00;45.60
678;DHT22;321;48.814;9.132;2023-06-14T06:19:41;28.40;47.40
678;DHT22;321;48.814;9.132;2023-06-14T06:22:07;28.10;47.70
678;DHT22;321;48.814;9.132;2023-06-14T06:24:33;27.80;49.10
678;DHT22;321;48.814;9.132;2023-06-14T06:26:59;28.40;48.90
678;DHT22;321;48.814;9.132;2023-06-14T06:29:25;30.00;47.80
678;DHT22;321;48.814;9.132;2023-06-14T06:31:51;31.40;46.20
678;DHT22;321;48.814;9.132;2023-06-14T06:34:16;32.60;43.00
678;DHT22;321;48.814;9.132;2023-06-14T06:36:42;33.90;41.60
678;DHT22;321;48.814;9.132;2023-06-14T06:39:10;34.30;40.00
678;DHT22;321;48.814;9.132;2023-06-14T06:41:39;35.00;39.30
678;DHT22;321;48.814;9.132;2023-06-14T06:44:06;35.60;38.10
678;DHT22;321;48.814;9.132;2023-06-14T06:46:32;36.50;38.00
678;DHT22;321;48.814;9.132;2023-06-14T06:48:58;37.30;38.50
678;DHT22;321;48.814;9.132;2023-06-14T06:51:24;37.90;37.30
678;DHT22;321;48.814;9.132;2023-06-14T06:53:53;38.20;35.60
678;DHT22;321;48.814;9.132;2023-06-14T06:56:19;38.90;35.70
678;DHT22;321;48.814;9.132;2023-06-14T06:58:45;39.90;33.50
678;DHT22;321;48.814;9.132;2023-06-14T07:01:10;40.50;33.90
678;DHT22;321;48.814;9.132;2023-06-14T07:03:37;41.00;31.50
678;DHT22;321;48.814;9.132;2023-06-14T07:06:03;40.60;31.00
678;DHT22;321;48.814;9.132;2023-06-14T07:08:29;41.10;31.70
678;DHT22;321;48.814;9.132;2023-06-14T07:10:54;41.20;29.70
678;DHT22;321;48.814;9.132;2023-06-14T07:13:20;40.30;29.80
678;DHT22;321;48.814;9.132;2023-06-14T07:15:46;41.00;30.00
678;DHT22;321;48.814;9.132;2023-06-14T07:18:12;41.60;30.40
678;DHT22;321;48.814;9.132;2023-06-14T07:20:37;40.90;29.40
678;DHT22;321;48.814;9.132;2023-06-14T07:23:04;39.70;30.60
678;DHT22;321;48.814;9.132;2023-06-14T07:25:30;39.00;31.80
678;DHT22;321;48.814;9.132;2023-06-14T07:27:56;39.10;31.60
678;DHT22;321;48.814;9.132;2023-06-14T07:30:22;39.10;30.80
678;DHT22;321;48.814;9.132;2023-06-14T07:32:53;38.10;28.70
678;DHT22;321;48.814;9.132;2023-06-14T07:35:19;39.00;30.30
678;DHT22;321;48.814;9.132;2023-06-14T07:37:45;37.90;29.80
678;DHT22;321;48.814;9.132;2023-06-14T07:40:12;38.30;30.70
678;DHT22;321;48.814;9.132;2023-06-14T07:42:38;38.60;29.50
678;DHT22;321;48.814;9.132;2023-06-14T07:45:04;36.80;29.50
678;DHT22;321;48.814;9.132;2023-06-14T07:47:30;37.20;30.80
678;DHT22;321;48.814;9.132;2023-06-14T07:49:56;39.10;30.20
678;DHT22;321;48.814;9.132;2023-06-14T07:52:21;40.60;28.90
678;DHT22;321;48.814;9.132;2023-06-14T07:54:47;41.60;27.80
678;DHT22;321;48.814;9.132;2023-06-14T07:57:13;37.70;30.00
678;DHT22;321;48.814;9.132;2023-06-14T07:59:41;38.10;30.60
678;DHT22;321;48.814;9.132;2023-06-14T08:02:06;39.60;31.40
678;DHT22;321;48.814;9.132;2023-06-14T08:04:32;40.80;29.40
678;DHT22;321;48.814;9.132;2023-06-14T08:06:59;40.20;28.30
678;DHT22;321;48.814;9.132;2023-06-14T08:09:24;41.50;28.70
678;DHT22;321;48.814;9.132;2023-06-14T08:11:50;42.70;28.50
678;DHT22;321;48.814;9.132;2023-06-14T08:14:16;43.80;27.10
678;DHT22;321;48.814;9.132;2023-06-14T08:16:42;44.00;26.60
678;DHT22;321;48.814;9.132;2023-06-14T08:19:08;44.60;26.80
678;DHT22;321;48.814;9.132;2023-06-14T08:21:33;43.80;26.00
678;DHT22;321;48.814;9.132;2023-06-14T08:24:02;42.80;27.10
678;DHT22;321;48.814;9.132;2023-06-14T08:26:27;42.70;26.80
678;DHT22;321;48.814;9.132;2023-06-14T08:28:57;41.60;28.30
678;DHT22;321;48.814;9.132;2023-06-14T08:31:23;40.80;29.00
678;DHT22;321;48.814;9.132;2023-06-14T08:33:49;40.70;28.90
678;DHT22;321;48.814;9.132;2023-06-14T08:36:15;40.70;27.40
678;DHT22;321;48.814;9.132;2023-06-14T08:38:40;40.60;28.50
678;DHT22;321;48.814;9.132;2023-06-14T08:41:06;40.90;29.80
678;DHT22;321;48.814;9.132;2023-06-14T08:43:32;41.40;27.90
678;DHT22;321;48.814;9.132;2023-06-14T08:46:01;41.30;28.40
678;DHT22;321;48.814;9.132;2023-06-14T08:48:27;40.80;28.80
678;DHT22;321;48.814;9.132;2023-06-14T08:50:56;40.40;27.40
678;DHT22;321;48.814;9.132;2023-06-14T08:53:28;38.20;31.80
678;DHT22;321;48.814;9.132;2023-06-14T08:55:54;37.70;30.90
678;DHT22;321;48.814;9.132;2023-06-14T08:58:21;36.80;31.30
678;DHT22;321;48.814;9.132;2023-06-14T09:00:49;36.80;31.60
678;DHT22;321;48.814;9.132;2023-06-14T09:03:17;35.90;32.20
678;DHT22;321;48.814;9.132;2023-06-14T09:05:45;33.30;34.10
678;DHT22;321;48.814;9.132;2023-06-14T09:08:11;32.40;37.00
678;DHT22;321;48.814;9.132;2023-06-14T09:10:37;32.50;38.30
678;DHT22;321;48.814;9.132;2023-06-14T09:13:03;32.10;37.60
678;DHT22;321;48.814;9.132;2023-06-14T09:15:33;32.20;37.00
678;DHT22;321;48.814;9.132;2023-06-14T09:18:01;33.60;36.80
678;DHT22;321;48.814;9.132;2023-06-14T09:20:29;34.50;36.40
678;DHT22;321;48.814;9.132;2023-06-14T09:22:55;35.10;37.10
678;DHT22;321;48.814;9.132;2023-06-14T09:25:21;35.80;35.20
678;DHT22;321;48.814;9.132;2023-06-14T09:27:47;35.80;33.30
678;DHT22;321;48.814;9.132;2023-06-14T09:30:13;35.70;34.90
678;DHT22;321;48.814;9.132;2023-06-14T09:32:39;36.10;33.90
678;DHT22;321;48.814;9.132;2023-06-14T09:35:09;36.50;31.80
678;DHT22;321;48.814;9.132;2023-06-14T09:37:35;37.00;32.80
678;DHT22;321;48.814;9.132;2023-06-14T09:40:01;35.80;32.30
678;DHT22;321;48.814;9.132;2023-06-14T09:42:28;34.40;33.80
678;DHT22;321;48.814;9.132;2023-06-14T09:44:56;33.60;35.80
678;DHT22;321;48.814;9.132;2023-06-14T09:47:22;33.40;35.50
678;DHT22;321;48.814;9.132;2023-06-14T09:49:49;33.30;34.70
678;DHT22;321;48.814;9.132;2023-06-14T09:52:18;33.50;35.10
678;DHT22;321;48.814;9.132;2023-06-14T09:54:46;33.80;34.60
678;DHT22;321;48.814;9.132;2023-06-14T09:57:16;33.50;36.60
678;DHT22;321;48.814;9.132;2023-06-14T09:59:44;32.80;34.70
678;DHT22;321;48.814;9.132;2023-06-14T10:02:25;31.50;38.00
678;DHT22;321;48.814;9.132;2023-06-14T10:07:42;32.10;36.70
678;DHT22;321;48.814;9.132;2023-06-14T10:10:10;30.20;37.60
678;DHT22;321;48.814;9.132;2023-06-14T10:12:36;31.40;38.90
678;DHT22;321;48.814;9.132;2023-06-14T10:15:02;32.20;36.30
678;DHT22;321;48.814;9.132;2023-06-14T10:17:32;32.40;37.90
678;DHT22;321;48.814;9.132;2023-06-14T10:20:23;32.40;35.40
678;DHT22;321;48.814;9.132;2023-06-14T10:22:58;32.90;36.40
678;DHT22;321;48.814;9.132;2023-06-14T10:25:29;33.20;35.20
678;DHT22;321;48.814;9.132;2023-06-14T10:28:16;32.70;34.80
678;DHT22;321;48.814;9.132;2023-06-14T10:31:10;33.30;34.00
678;DHT22;321;48.814;9.132;2023-06-14T10:33:41;33.30;34.80
678;DHT22;321;48.814;9.132;2023-06-14T10:41:27;33.00;35.60
678;DHT22;321;48.814;9.132;2023-06-14T10:46:36;34.50;33.90
678;DHT22;321;48.814;9.132;2023-06-14T10:49:01;33.80;33.50
678;DHT22;321;48.814;9.132;2023-06-14T10:51:29;33.00;34.10
678;DHT22;321;48.814;9.132;2023-06-14T10:53:57;32.20;33.80
678;DHT22;321;48.814;9.132;2023-06-14T10:56:28;31.50;36.70
678;DHT22;321;48.814;9.132;2023-06-14T10:58:55;31.30;36.80
678;DHT22;321;48.814;9.132;2023-06-14T11:04:50;30.30;36.80
678;DHT22;321;48.814;9.132;2023-06-14T11:12:59;33.20;32.80
678;DHT22;321;48.814;9.132;2023-06-14T11:15:31;32.40;32.20
678;DHT22;321;48.814;9.132;2023-06-14T11:17:57;33.00;33.20
678;DHT22;321;48.814;9.132;2023-06-14T11:20:26;33.50;35.00
678;DHT22;321;48.814;9.132;2023-06-14T11:22:52;34.40;33.00
678;DHT22;321;48.814;9.132;2023-06-14T11:25:18;35.00;32.30
678;DHT22;321;48.814;9.132;2023-06-14T11:27:44;35.10;30.80
678;DHT22;321;48.814;9.132;2023-06-14T11:30:11;34.30;34.00
678;DHT22;321;48.814;9.132;2023-06-14T11:32:37;34.00;33.50
678;DHT22;321;48.814;9.132;2023-06-14T11:35:04;33.70;32.80
678;DHT22;321;48.814;9.132;2023-06-14T11:37:33;33.60;32.20
678;DHT22;321;48.814;9.132;2023-06-14T11:39:59;33.70;32.70
678;DHT22;321;48.814;9.132;2023-06-14T11:42:28;34.50;34.40
678;DHT22;321;48.814;9.132;2023-06-14T11:44:54;34.70;30.90
678;DHT22;321;48.814;9.132;2023-06-14T11:47:20;35.20;31.20
678;DHT22;321;48.814;9.132;2023-06-14T11:49:46;35.40;29.90
678;DHT22;321;48.814;9.132;2023-06-14T11:52:13;34.90;33.10
678;DHT22;321;48.814;9.132;2023-06-14T11:54:39;34.80;32.90
678;DHT22;321;48.814;9.132;2023-06-14T11:57:09;34.70;32.50
678;DHT22;321;48.814;9.132;2023-06-14T11:59:39;34.20;31.60
678;DHT22;321;48.814;9.132;2023-06-14T12:02:06;33.80;34.00
678;DHT22;321;48.814;9.132;2023-06-14T12:04:32;33.10;33.40
678;DHT22;321;48.814;9.132;2023-06-14T12:07:11;32.40;34.30
678;DHT22;321;48.814;9.132;2023-06-14T12:12:26;30.60;38.00
678;DHT22;321;48.814;9.132;2023-06-14T12:14:52;29.50;36.10
678;DHT22;321;48.814;9.132;2023-06-14T12:17:19;29.50;37.40
678;DHT22;321;48.814;9.132;2023-06-14T12:19:45;29.50;40.80
678;DHT22;321;48.814;9.132;2023-06-14T12:22:12;29.50;39.10
678;DHT22;321;48.814;9.132;2023-06-14T12:24:39;29.50;40.50
678;DHT22;321;48.814;9.132;2023-06-14T12:27:05;29.40;37.60
678;DHT22;321;48.814;9.132;2023-06-14T12:29:31;29.20;38.60
678;DHT22;321;48.814;9.132;2023-06-14T12:31:57;29.00;39.00
678;DHT22;321;48.814;9.132;2023-06-14T12:34:27;28.80;40.40
678;DHT22;321;48.814;9.132;2023-06-14T12:36:55;28.70;40.90
678;DHT22;321;48.814;9.132;2023-06-14T12:39:22;28.70;40.80
678;DHT22;321;48.814;9.132;2023-06-14T12:41:48;28.50;42.10
678;DHT22;321;48.814;9.132;2023-06-14T12:44:14;28.20;40.20
678;DHT22;321;48.814;9.132;2023-06-14T12:46:43;28.10;39.50
678;DHT22;321;48.814;9.132;2023-06-14T12:49:10;28.00;40.40
678;DHT22;321;48.814;9.132;2023-06-14T12:51:39;28.00;41.50
678;DHT22;321;48.814;9.132;2023-06-14T12:54:05;28.20;40.60
678;DHT22;321;48.814;9.132;2023-06-14T12:56:31;28.10;40.90
678;DHT22;321;48.814;9.132;2023-06-14T12:58:58;28.10;41.50
678;DHT22;321;48.814;9.132;2023-06-14T13:01:23;27.80;40.60
678;DHT22;321;48.814;9.132;2023-06-14T13:03:49;27.50;41.60
678;DHT22;321;48.814;9.132;2023-06-14T13:06:17;27.70;42.40
678;DHT22;321;48.814;9.132;2023-06-14T13:08:42;27.70;42.40
678;DHT22;321;48.814;9.132;2023-06-14T13:11:08;27.90;42.60
678;DHT22;321;48.814;9.132;2023-06-14T13:13:34;27.30;40.90
678;DHT22;321;48.814;9.132;2023-06-14T13:16:00;26.70;41.40
678;DHT22;321;48.814;9.132;2023-06-14T13:18:25;26.40;42.40
678;DHT22;321;48.814;9.132;2023-06-14T13:20:51;26.20;41.80
678;DHT22;321;48.814;9.132;2023-06-14T13:23:17;26.10;42.80
678;DHT22;321;48.814;9.132;2023-06-14T13:25:42;25.90;42.50
678;DHT22;321;48.814;9.132;2023-06-14T13:28:08;25.70;43.00
678;DHT22;321;48.814;9.132;2023-06-14T13:30:34;25.10;44.20
678;DHT22;321;48.814;9.132;2023-06-14T13:33:00;25.10;43.50
678;DHT22;321;48.814;9.132;2023-06-14T13:35:27;25.40;44.70
678;DHT22;321;48.814;9.132;2023-06-14T13:37:52;25.50;43.70
678;DHT22;321;48.814;9.132;2023-06-14T13:40:18;25.60;44.50
678;DHT22;321;48.814;9.132;2023-06-14T13:42:44;25.70;45.00
678;DHT22;321;48.814;9.132;2023-06-14T13:45:11;25.60;44.60
678;DHT22;321;48.814;9.132;2023-06-14T13:47:37;25.70;45.60
678;DHT22;321;48.814;9.132;2023-06-14T13:50:04;25.70;45.10
678;DHT22;321;48.814;9.132;2023-06-14T13:52:30;26.00;44.30
678;DHT22;321;48.814;9.132;2023-06-14T13:54:55;26.10;43.80
678;DHT22;321;48.814;9.132;2023-06-14T13:57:21;26.30;45.90
678;DHT22;321;48.814;9.132;2023-06-14T13:59:47;26.50;44.80
678;DHT22;321;48.814;9.132;2023-06-14T14:02:13;26.80;43.70
678;DHT22;321;48.814;9.132;2023-06-14T14:04:40;26.50;42.90
678;DHT22;321;48.814;9.132;2023-06-14T14:07:06;26.50;43.90
678;DHT22;321;48.814;9.132;2023-06-14T14:09:33;26.40;43.40
678;DHT22;321;48.814;9.132;2023-06-14T14:11:59;26.50;44.20
678;DHT22;321;48.814;9.132;2023-06-14T14:14:26;26.20;42.80
678;DHT22;321;48.814;9.132;2023-06-14T14:16:52;25.70;45.00
678;DHT22;321;48.814;9.132;2023-06-14T14:19:21;25.70;44.30
678;DHT22;321;48.814;9.132;2023-06-14T14:21:47;26.00;46.10
678;DHT22;321;48.814;9.132;2023-06-14T14:24:13;26.20;45.60
678;DHT22;321;48.814;9.132;2023-06-14T14:26:39;26.10;44.70
678;DHT22;321;48.814;9.132;2023-06-14T14:29:05;26.30;44.40
678;DHT22;321;48.814;9.132;2023-06-14T14:31:31;26.40;44.60
678;DHT22;321;48.814;9.132;2023-06-14T14:33:56;26.20;43.10
678;DHT22;321;48.814;9.132;2023-06-14T14:36:22;26.00;43.40
678;DHT22;321;48.814;9.132;2023-06-14T14:38:47;25.60;43.50
678;DHT22;321;48.814;9.132;2023-06-14T14:41:13;25.10;44.50
678;DHT22;321;48.814;9.132;2023-06-14T14:43:39;25.20;46.10
678;DHT22;321;48.814;9.132;2023-06-14T14:46:05;25.30;44.90
678;DHT22;321;48.814;9.132;2023-06-14T14:48:31;25.20;45.20
678;DHT22;321;48.814;9.132;2023-06-14T14:50:56;25.20;45.30
678;DHT22;321;48.814;9.132;2023-06-14T14:53:22;25.30;45.00
678;DHT22;321;48.814;9.132;2023-06-14T14:55:48;25.20;45.00
678;DHT22;321;48.814;9.132;2023-06-14T14:58:13;25.50;47.10
678;DHT22;321;48.814;9.132;2023-06-14T15:00:46;25.60;48.30
678;DHT22;321;48.814;9.132;2023-06-14T15:03:12;25.60;46.90
678;DHT22;321;48.814;9.132;2023-06-14T15:05:37;25.80;45.60
678;DHT22;321;48.814;9.132;2023-06-14T15:08:04;25.90;46.30
678;DHT22;321;48.814;9.132;2023-06-14T15:10:30;25.90;46.40
678;DHT22;321;48.814;9.132;2023-06-14T15:12:56;25.90;46.30
678;DHT22;321;48.814;9.132;2023-06-14T15:15:22;26.00;46.30
678;DHT22;321;48.814;9.132;2023-06-14T15:17:48;26.10;45.90
678;DHT22;321;48.814;9.132;2023-06-14T15:20:13;25.90;45.30
678;DHT22;321;48.814;9.132;2023-06-14T15:22:40;25.90;45.60
678;DHT22;321;48.814;9.132;2023-06-14T15:25:06;25.90;45.20
678;DHT22;321;48.814;9.132;2023-06-14T15:27:31;25.10;44.30
678;DHT22;321;48.814;9.132;2023-06-14T15:29:57;25.00;45.50
678;DHT22;321;48.814;9.132;2023-06-14T15:32:22;24.90;46.40
678;DHT22;321;48.814;9.132;2023-06-14T15:34:48;25.10;45.70
678;DHT22;321;48.814;9.132;2023-06-14T15:37:14;25.20;47.30
678;DHT22;321;48.814;9.132;2023-06-14T15:39:39;25.50;46.40
678;DHT22;321;48.814;9.132;2023-06-14T15:42:05;25.30;45.70
678;DHT22;321;48.814;9.132;2023-06-14T15:44:31;24.90;45.70
678;DHT22;321;48.814;9.132;2023-06-14T15:46:57;25.10;46.10
678;DHT22;321;48.814;9.132;2023-06-14T15:49:23;25.30;46.40
678;DHT22;321;48.814;9.132;2023-06-14T15:51:48;25.40;46.00
678;DHT22;321;48.814;9.132;2023-06-14T15:54:14;25.40;45.50
678;DHT22;321;48.814;9.132;2023-06-14T15:56:39;25.30;45.70
678;DHT22;321;48.814;9.132;2023-06-14T15:59:05;25.30;45.30
678;DHT22;321;48.814;9.132;2023-06-14T16:01:32;25.20;47.30
678;DHT22;321;48.814;9.132;2023-06-14T16:03:58;25.20;46.60
678;DHT22;321;48.814;9.132;2023-06-14T16:06:24;25.20;46.40
678;DHT22;321;48.814;9.132;2023-06-14T16:08:49;25.30;46.50
678;DHT22;321;48.814;9.132;2023-06-14T16:11:17;25.00;46.10
678;DHT22;321;48.814;9.132;2023-06-14T16:13:43;24.70;46.40
678;DHT22;321;48.814;9.132;2023-06-14T16:16:11;24.80;47.40
678;DHT22;321;48.814;9.132;2023-06-14T16:18:37;25.00;46.90
678;DHT22;321;48.814;9.132;2023-06-14T16:21:03;24.90;46.30
678;DHT22;321;48.814;9.132;2023-06-14T16:23:34;25.00;46.60
678;DHT22;321;48.814;9.132;2023-06-14T16:25:59;25.00;46.90
678;DHT22;321;48.814;9.132;2023-06-14T16:28:25;25.10;47.10
678;DHT22;321;48.814;9.132;2023-06-14T16:30:50;25.10;46.70
678;DHT22;321;48.814;9.132;2023-06-14T16:33:16;25.10;46.20
678;DHT22;321;48.814;9.132;2023-06-14T16:35:42;25.20;45.80
678;DHT22;321;48.814;9.132;2023-06-14T16:38:07;24.80;45.40
678;DHT22;321;48.814;9.132;2023-06-14T16:40:33;24.70;46.10
678;DHT22;321;48.814;9.132;2023-06-14T16:42:58;24.70;45.80
678;DHT22;321;48.814;9.132;2023-06-14T16:45:24;24.60;46.50
678;DHT22;321;48.814;9.132;2023-06-14T16:47:49;24.70;47.00
678;DHT22;321;48.814;9.132;2023-06-14T16:50:15;24.80;47.40
678;DHT22;321;48.814;9.132;2023-06-14T16:52:41;24.90;49.00
678;DHT22;321;48.814;9.132;2023-06-14T16:55:07;25.10;50.50
678;DHT22;321;48.814;9.132;2023-06-14T16:57:32;25.30;49.50
678;DHT22;321;48.814;9.132;2023-06-14T16:59:58;25.30;48.40
678;DHT22;321;48.814;9.132;2023-06-14T17:02:23;25.20;48.20
678;DHT22;321;48.814;9.132;2023-06-14T17:04:49;25.10;49.10
678;DHT22;321;48.814;9.132;2023-06-14T17:07:15;25.00;48.60
678;DHT22;321;48.814;9.132;2023-06-14T17:09:40;25.00;50.30
678;DHT22;321;48.814;9.132;2023-06-14T17:12:07;24.90;50.80
678;DHT22;321;48.814;9.132;2023-06-14T17:14:33;24.90;50.00
678;DHT22;321;48.814;9.132;2023-06-14T17:16:59;24.80;51.10
678;DHT22;321;48.814;9.132;2023-06-14T17:19:25;24.80;50.70
678;DHT22;321;48.814;9.132;2023-06-14T17:21:51;24.80;51.80
678;DHT22;321;48.814;9.132;2023-06-14T17:24:19;24.80;50.90
678;DHT22;321;48.814;9.132;2023-06-14T17:26:47;24.60;50.30
678;DHT22;321;48.814;9.132;2023-06-14T17:29:14;24.60;51.30
678;DHT22;321;48.814;9.132;2023-06-14T17:31:40;24.50;49.50
678;DHT22;321;48.814;9.132;2023-06-14T17:34:06;24.50;51.60
678;DHT22;321;48.814;9.132;2023-06-14T17:36:31;24.50;51.40
678;DHT22;321;48.814;9.132;2023-06-14T17:38:57;24.40;52.10
678;DHT22;321;48.814;9.132;2023-06-14T17:41:22;24.20;52.50
678;DHT22;321;48.814;9.132;2023-06-14T17:43:49;24.20;52.60
678;DHT22;321;48.814;9.132;2023-06-14T17:46:15;23.70;50.50
678;DHT22;321;48.814;9.132;2023-06-14T17:48:40;23.70;51.30
678;DHT22;321;48.814;9.132;2023-06-14T17:51:06;23.80;51.90
678;DHT22;321;48.814;9.132;2023-06-14T17:53:32;23.80;54.30
678;DHT22;321;48.814;9.132;2023-06-14T17:55:58;23.80;57.70
678;DHT22;321;48.814;9.132;2023-06-14T17:58:24;23.80;57.00
678;DHT22;321;48.814;9.132;2023-06-14T18:00:50;23.80;57.30
678;DHT22;321;48.814;9.132;2023-06-14T18:03:17;23.80;51.10
678;DHT22;321;48.814;9.132;2023-06-14T18:05:43;23.40;50.10
678;DHT22;321;48.814;9.132;2023-06-14T18:08:10;23.30;50.20
678;DHT22;321;48.814;9.132;2023-06-14T18:10:36;23.00;50.60
678;DHT22;321;48.814;9.132;2023-06-14T18:13:02;22.90;50.80
678;DHT22;321;48.814;9.132;2023-06-14T18:15:28;22.90;51.30
678;DHT22;321;48.814;9.132;2023-06-14T18:17:54;22.90;51.40
678;DHT22;321;48.814;9.132;2023-06-14T18:20:21;22.80;51.60